sensor_id;sensor_type;location;lat;lon;timestamp;P1;durP1;ratioP1;P2;durP2;ratioP2
3801;SDS011;1916;51.798;12.246;2023-12-20T00:01:11;11.70;;;8.40;;
3801;SDS011;1916;51.798;12.246;2023-12-20T00:03:14;11.97;;;8.50;;
3801;SDS011;1916;51.798;12.246;2023-12-20T00:05:16;10.37;;;7.50;;
3801;SDS011;1916;51.798;12.246;2023-12-20T00:07:19;10.07;;;7.93;;
3801;SDS011;1916;51.798;12.246;2023-12-20T00:09:21;9.77;;;7.80;;
3801;SDS011;1916;51.798;12.246;2023-12-20T00:11:24;10.63;;;7.90;;
3801;SDS011;1916;51.798;12.246;2023-12-20T00:13:26;13.00;;;7.57;;
3801;SDS011;1916;51.798;12.246;2023-12-20T00:15:28;10.50;;;7.93;;
3801;SDS011;1916;51.798;12.246;2023-12-20T00:17:31;9.37;;;7.23;;
3801;SDS011;1916;51.798;12.246;2023-12-20T00:19:33;10.30;;;7.47;;
3801;SDS011;1916;51.798;12.246;2023-12-20T00:21:35;7.57;;;6.70;;
3801;SDS011;1916;51.798;12.246;2023-12-20T00:23:37;9.00;;;7.97;;
3801;SDS011;1916;51.798;12.246;2023-12-20T00:25:40;11.27;;;7.43;;
3801;SDS011;1916;51.798;12.246;2023-12-20T00:27:42;10.07;;;7.63;;
3801;SDS011;1916;51.798;12.246;2023-12-20T00:29:45;8.50;;;7.00;;
3801;SDS011;1916;51.798;12.246;2023-12-20T00:31:51;9.73;;;7.67;;
3801;SDS011;1916;51.798;12.246;2023-12-20T00:33:53;11.90;;;7.10;;
3801;SDS011;1916;51.798;12.246;2023-12-20T00:35:57;9.90;;;7.83;;
3801;SDS011;1916;51.798;12.246;2023-12-20T00:37:59;9.80;;;7.30;;
3801;SDS011;1916;51.798;12.246;2023-12-20T00:40:01;7.87;;;6.83;;
3801;SDS011;1916;51.798;12.246;2023-12-20T00:42:03;6.60;;;5.90;;
3801;SDS011;1916;51.798;12.246;2023-12-20T00:44:06;7.20;;;6.27;;
3801;SDS011;1916;51.798;12.246;2023-12-20T00:46:08;8.90;;;7.20;;
3801;SDS011;1916;51.798;12.246;2023-12-20T00:48:11;8.43;;;6.40;;
3801;SDS011;1916;51.798;12.246;2023-12-20T00:50:13;8.73;;;6.90;;
3801;SDS011;1916;51.798;12.246;2023-12-20T00:52:16;6.90;;;6.10;;
3801;SDS011;1916;51.798;12.246;2023-12-20T00:54:19;8.40;;;7.10;;
3801;SDS011;1916;51.798;12.246;2023-12-20T00:56:21;8.03;;;6.27;;
3801;SDS011;1916;51.798;12.246;2023-12-20T00:58:23;7.40;;;6.13;;
3801;SDS011;1916;51.798;12.246;2023-12-20T01:00:26;7.40;;;6.47;;
3801;SDS011;1916;51.798;12.246;2023-12-20T01:02:29;6.47;;;5.80;;
3801;SDS011;1916;51.798;12.246;2023-12-20T01:04:31;8.33;;;6.60;;
3801;SDS011;1916;51.798;12.246;2023-12-20T01:06:33;6.70;;;5.90;;
3801;SDS011;1916;51.798;12.246;2023-12-20T01:08:37;7.20;;;6.37;;
3801;SDS011;1916;51.798;12.246;2023-12-20T01:10:39;7.10;;;5.70;;
3801;SDS011;1916;51.798;12.246;2023-12-20T01:12:42;7.87;;;6.70;;
3801;SDS011;1916;51.798;12.246;2023-12-20T01:14:45;7.00;;;5.37;;
3801;SDS011;1916;51.798;12.246;2023-12-20T01:16:48;7.77;;;6.40;;
3801;SDS011;1916;51.798;12.246;2023-12-20T01:18:50;6.37;;;5.60;;
3801;SDS011;1916;51.798;12.246;2023-12-20T01:20:52;7.07;;;6.07;;
3801;SDS011;1916;51.798;12.246;2023-12-20T01:22:55;8.17;;;5.90;;
3801;SDS011;1916;51.798;12.246;2023-12-20T01:24:57;6.97;;;6.17;;
3801;SDS011;1916;51.798;12.246;2023-12-20T01:27:00;7.03;;;6.30;;
3801;SDS011;1916;51.798;12.246;2023-12-20T01:29:02;7.80;;;6.67;;
3801;SDS011;1916;51.798;12.246;2023-12-20T01:31:04;6.93;;;6.23;;
3801;SDS011;1916;51.798;12.246;2023-12-20T01:33:07;6.73;;;6.10;;
3801;SDS011;1916;51.798;12.246;2023-12-20T01:35:09;7.93;;;6.77;;
3801;SDS011;1916;51.798;12.246;2023-12-20T01:37:12;7.90;;;6.80;;
3801;SDS011;1916;51.798;12.246;2023-12-20T01:39:14;7.60;;;6.60;;
3801;SDS011;1916;51.798;12.246;2023-12-20T01:41:28;12.20;;;6.10;;
3801;SDS011;1916;51.798;12.246;2023-12-20T01:43:31;7.50;;;6.50;;
3801;SDS011;1916;51.798;12.246;2023-12-20T01:45:48;8.20;;;6.77;;
3801;SDS011;1916;51.798;12.246;2023-12-20T01:47:50;7.87;;;7.07;;
3801;SDS011;1916;51.798;12.246;2023-12-20T01:49:53;8.93;;;7.57;;
3801;SDS011;1916;51.798;12.246;2023-12-20T01:51:55;6.97;;;6.27;;
3801;SDS011;1916;51.798;12.246;2023-12-20T01:53:58;9.83;;;7.07;;
3801;SDS011;1916;51.798;12.246;2023-12-20T01:56:00;8.57;;;6.80;;
3801;SDS011;1916;51.798;12.246;2023-12-20T01:58:03;11.73;;;8.07;;
3801;SDS011;1916;51.798;12.246;2023-12-20T02:00:06;7.07;;;6.17;;
3801;SDS011;1916;51.798;12.246;2023-12-20T02:02:08;9.53;;;7.37;;
3801;SDS011;1916;51.798;12.246;2023-12-20T02:04:10;8.83;;;7.93;;
3801;SDS011;1916;51.798;12.246;2023-12-20T02:06:13;8.10;;;7.00;;
3801;SDS011;1916;51.798;12.246;2023-12-20T02:08:15;8.77;;;6.43;;
3801;SDS011;1916;51.798;12.246;2023-12-20T02:10:17;9.00;;;6.93;;
3801;SDS011;1916;51.798;12.246;2023-12-20T02:12:20;11.23;;;7.17;;
3801;SDS011;1916;51.798;12.246;2023-12-20T02:14:22;9.87;;;7.43;;
3801;SDS011;1916;51.798;12.246;2023-12-20T02:16:24;8.50;;;7.50;;
3801;SDS011;1916;51.798;12.246;2023-12-20T02:18:26;8.90;;;6.93;;
3801;SDS011;1916;51.798;12.246;2023-12-20T02:20:29;7.20;;;6.20;;
3801;SDS011;1916;51.798;12.246;2023-12-20T02:22:31;8.07;;;6.47;;
3801;SDS011;1916;51.798;12.246;2023-12-20T02:24:33;7.23;;;6.40;;
3801;SDS011;1916;51.798;12.246;2023-12-20T02:26:35;9.30;;;7.03;;
3801;SDS011;1916;51.798;12.246;2023-12-20T02:28:38;8.37;;;7.47;;
3801;SDS011;1916;51.798;12.246;2023-12-20T02:30:40;7.23;;;6.40;;
3801;SDS011;1916;51.798;12.246;2023-12-20T02:32:42;10.60;;;7.70;;
3801;SDS011;1916;51.798;12.246;2023-12-20T02:34:46;8.43;;;7.00;;
3801;SDS011;1916;51.798;12.246;2023-12-20T02:36:50;7.90;;;6.27;;
3801;SDS011;1916;51.798;12.246;2023-12-20T02:38:52;8.40;;;7.40;;
3801;SDS011;1916;51.798;12.246;2023-12-20T02:40:55;11.07;;;8.60;;
3801;SDS011;1916;51.798;12.246;2023-12-20T02:42:57;10.03;;;6.60;;
3801;SDS011;1916;51.798;12.246;2023-12-20T02:44:59;7.27;;;6.57;;
3801;SDS011;1916;51.798;12.246;2023-12-20T02:47:02;8.50;;;6.93;;
3801;SDS011;1916;51.798;12.246;2023-12-20T02:49:05;8.90;;;7.30;;
3801;SDS011;1916;51.798;12.246;2023-12-20T02:51:08;9.13;;;7.20;;
3801;SDS011;1916;51.798;12.246;2023-12-20T02:53:10;10.87;;;8.43;;
3801;SDS011;1916;51.798;12.246;2023-12-20T02:55:12;9.00;;;7.90;;
3801;SDS011;1916;51.798;12.246;2023-12-20T02:57:15;9.27;;;7.23;;
3801;SDS011;1916;51.798;12.246;2023-12-20T02:59:17;10.77;;;7.70;;
3801;SDS011;1916;51.798;12.246;2023-12-20T03:01:19;9.73;;;7.90;;
3801;SDS011;1916;51.798;12.246;2023-12-20T03:03:22;9.40;;;8.00;;
3801;SDS011;1916;51.798;12.246;2023-12-20T03:05:24;9.60;;;8.10;;
3801;SDS011;1916;51.798;12.246;2023-12-20T03:07:26;9.10;;;7.63;;
3801;SDS011;1916;51.798;12.246;2023-12-20T03:09:28;8.80;;;7.70;;
3801;SDS011;1916;51.798;12.246;2023-12-20T03:11:39;9.80;;;8.17;;
3801;SDS011;1916;51.798;12.246;2023-12-20T03:13:41;9.60;;;8.37;;
3801;SDS011;1916;51.798;12.246;2023-12-20T03:15:43;10.57;;;8.33;;
3801;SDS011;1916;51.798;12.246;2023-12-20T03:17:46;11.70;;;10.00;;
3801;SDS011;1916;51.798;12.246;2023-12-20T03:19:49;9.30;;;8.33;;
3801;SDS011;1916;51.798;12.246;2023-12-20T03:21:51;11.63;;;8.83;;
3801;SDS011;1916;51.798;12.246;2023-12-20T03:23:55;10.40;;;8.77;;
3801;SDS011;1916;51.798;12.246;2023-12-20T03:25:58;9.93;;;7.80;;
3801;SDS011;1916;51.798;12.246;2023-12-20T03:28:00;10.83;;;8.90;;
3801;SDS011;1916;51.798;12.246;2023-12-20T03:30:03;9.50;;;7.80;;
3801;SDS011;1916;51.798;12.246;2023-12-20T03:32:05;8.67;;;7.43;;
3801;SDS011;1916;51.798;12.246;2023-12-20T03:34:08;10.20;;;8.77;;
3801;SDS011;1916;51.798;12.246;2023-12-20T03:36:14;10.63;;;9.27;;
3801;SDS011;1916;51.798;12.246;2023-12-20T03:38:16;12.10;;;10.20;;
3801;SDS011;1916;51.798;12.246;2023-12-20T03:40:19;14.77;;;11.90;;
3801;SDS011;1916;51.798;12.246;2023-12-20T03:42:21;12.13;;;10.77;;
3801;SDS011;1916;51.798;12.246;2023-12-20T03:44:24;13.97;;;11.50;;
3801;SDS011;1916;51.798;12.246;2023-12-20T03:46:26;9.90;;;8.20;;
3801;SDS011;1916;51.798;12.246;2023-12-20T03:48:29;13.13;;;10.43;;
3801;SDS011;1916;51.798;12.246;2023-12-20T03:50:31;9.07;;;8.00;;
3801;SDS011;1916;51.798;12.246;2023-12-20T03:52:33;9.77;;;8.47;;
3801;SDS011;1916;51.798;12.246;2023-12-20T03:54:36;10.80;;;9.30;;
3801;SDS011;1916;51.798;12.246;2023-12-20T03:56:38;14.77;;;11.10;;
3801;SDS011;1916;51.798;12.246;2023-12-20T03:58:40;12.10;;;10.20;;
3801;SDS011;1916;51.798;12.246;2023-12-20T04:00:42;10.60;;;9.37;;
3801;SDS011;1916;51.798;12.246;2023-12-20T04:02:45;8.00;;;7.17;;
3801;SDS011;1916;51.798;12.246;2023-12-20T04:04:47;11.07;;;9.90;;
3801;SDS011;1916;51.798;12.246;2023-12-20T04:06:49;15.67;;;12.00;;
3801;SDS011;1916;51.798;12.246;2023-12-20T04:08:52;13.47;;;11.10;;
3801;SDS011;1916;51.798;12.246;2023-12-20T04:10:54;11.87;;;10.00;;
3801;SDS011;1916;51.798;12.246;2023-12-20T04:12:56;11.37;;;8.77;;
3801;SDS011;1916;51.798;12.246;2023-12-20T04:14:58;8.33;;;7.00;;
3801;SDS011;1916;51.798;12.246;2023-12-20T04:17:01;8.23;;;6.50;;
3801;SDS011;1916;51.798;12.246;2023-12-20T04:19:03;6.37;;;5.77;;
3801;SDS011;1916;51.798;12.246;2023-12-20T04:21:06;9.60;;;5.70;;
3801;SDS011;1916;51.798;12.246;2023-12-20T04:23:09;8.20;;;5.87;;
3801;SDS011;1916;51.798;12.246;2023-12-20T04:25:11;6.10;;;5.23;;
3801;SDS011;1916;51.798;12.246;2023-12-20T04:27:13;7.20;;;5.70;;
3801;SDS011;1916;51.798;12.246;2023-12-20T04:29:15;7.50;;;5.67;;
3801;SDS011;1916;51.798;12.246;2023-12-20T04:31:17;13.83;;;6.27;;
3801;SDS011;1916;51.798;12.246;2023-12-20T04:33:19;7.20;;;5.47;;
3801;SDS011;1916;51.798;12.246;2023-12-20T04:35:22;8.60;;;6.20;;
3801;SDS011;1916;51.798;12.246;2023-12-20T04:37:24;8.00;;;6.37;;
3801;SDS011;1916;51.798;12.246;2023-12-20T04:39:26;9.03;;;6.30;;
3801;SDS011;1916;51.798;12.246;2023-12-20T04:41:29;10.47;;;5.93;;
3801;SDS011;1916;51.798;12.246;2023-12-20T04:43:32;8.47;;;6.13;;
3801;SDS011;1916;51.798;12.246;2023-12-20T04:45:34;8.87;;;6.73;;
3801;SDS011;1916;51.798;12.246;2023-12-20T04:47:36;11.80;;;8.20;;
3801;SDS011;1916;51.798;12.246;2023-12-20T04:49:38;10.40;;;8.10;;
3801;SDS011;1916;51.798;12.246;2023-12-20T04:51:41;17.80;;;8.80;;
3801;SDS011;1916;51.798;12.246;2023-12-20T04:53:43;17.13;;;8.00;;
3801;SDS011;1916;51.798;12.246;2023-12-20T04:55:45;12.43;;;8.07;;
3801;SDS011;1916;51.798;12.246;2023-12-20T04:57:48;14.50;;;8.07;;
3801;SDS011;1916;51.798;12.246;2023-12-20T04:59:50;16.53;;;8.43;;
3801;SDS011;1916;51.798;12.246;2023-12-20T05:01:53;16.97;;;7.90;;
3801;SDS011;1916;51.798;12.246;2023-12-20T05:03:55;23.07;;;8.73;;
3801;SDS011;1916;51.798;12.246;2023-12-20T05:05:57;14.60;;;8.63;;
3801;SDS011;1916;51.798;12.246;2023-12-20T05:08:00;21.93;;;11.03;;
3801;SDS011;1916;51.798;12.246;2023-12-20T05:10:02;18.60;;;9.57;;
3801;SDS011;1916;51.798;12.246;2023-12-20T05:12:06;22.70;;;10.50;;
3801;SDS011;1916;51.798;12.246;2023-12-20T05:14:08;18.63;;;11.57;;
3801;SDS011;1916;51.798;12.246;2023-12-20T05:16:11;17.30;;;10.50;;
3801;SDS011;1916;51.798;12.246;2023-12-20T05:18:16;23.43;;;12.83;;
3801;SDS011;1916;51.798;12.246;2023-12-20T05:20:18;26.83;;;16.13;;
3801;SDS011;1916;51.798;12.246;2023-12-20T05:22:20;25.43;;;16.27;;
3801;SDS011;1916;51.798;12.246;2023-12-20T05:24:22;25.73;;;15.03;;
3801;SDS011;1916;51.798;12.246;2023-12-20T05:26:25;27.10;;;18.43;;
3801;SDS011;1916;51.798;12.246;2023-12-20T05:28:27;33.20;;;18.50;;
3801;SDS011;1916;51.798;12.246;2023-12-20T05:30:29;33.80;;;19.27;;
3801;SDS011;1916;51.798;12.246;2023-12-20T05:32:31;27.47;;;15.97;;
3801;SDS011;1916;51.798;12.246;2023-12-20T05:34:33;26.67;;;18.20;;
3801;SDS011;1916;51.798;12.246;2023-12-20T05:36:36;24.07;;;10.73;;
3801;SDS011;1916;51.798;12.246;2023-12-20T05:38:39;23.73;;;11.60;;
3801;SDS011;1916;51.798;12.246;2023-12-20T05:40:41;20.70;;;12.10;;
3801;SDS011;1916;51.798;12.246;2023-12-20T05:42:43;24.03;;;10.63;;
3801;SDS011;1916;51.798;12.246;2023-12-20T05:44:45;13.17;;;8.33;;
3801;SDS011;1916;51.798;12.246;2023-12-20T05:46:49;18.87;;;7.13;;
3801;SDS011;1916;51.798;12.246;2023-12-20T05:48:51;15.90;;;7.40;;
3801;SDS011;1916;51.798;12.246;2023-12-20T05:50:53;14.53;;;7.03;;
3801;SDS011;1916;51.798;12.246;2023-12-20T05:52:56;27.60;;;7.23;;
3801;SDS011;1916;51.798;12.246;2023-12-20T05:54:58;14.03;;;5.90;;
3801;SDS011;1916;51.798;12.246;2023-12-20T05:57:03;19.80;;;7.30;;
3801;SDS011;1916;51.798;12.246;2023-12-20T05:59:05;17.80;;;7.00;;
3801;SDS011;1916;51.798;12.246;2023-12-20T06:01:08;14.63;;;6.77;;
3801;SDS011;1916;51.798;12.246;2023-12-20T06:03:10;20.80;;;8.50;;
3801;SDS011;1916;51.798;12.246;2023-12-20T06:05:13;13.83;;;7.93;;
3801;SDS011;1916;51.798;12.246;2023-12-20T06:07:16;20.60;;;6.83;;
3801;SDS011;1916;51.798;12.246;2023-12-20T06:09:18;15.30;;;7.70;;
3801;SDS011;1916;51.798;12.246;2023-12-20T06:11:21;19.10;;;8.00;;
3801;SDS011;1916;51.798;12.246;2023-12-20T06:13:23;17.87;;;5.50;;
3801;SDS011;1916;51.798;12.246;2023-12-20T06:15:25;23.50;;;7.23;;
3801;SDS011;1916;51.798;12.246;2023-12-20T06:17:28;13.23;;;6.23;;
3801;SDS011;1916;51.798;12.246;2023-12-20T06:19:32;18.90;;;6.90;;
3801;SDS011;1916;51.798;12.246;2023-12-20T06:21:34;15.33;;;6.50;;
3801;SDS011;1916;51.798;12.246;2023-12-20T06:23:37;15.57;;;7.27;;
3801;SDS011;1916;51.798;12.246;2023-12-20T06:25:39;14.73;;;6.60;;
3801;SDS011;1916;51.798;12.246;2023-12-20T06:27:41;19.00;;;7.83;;
3801;SDS011;1916;51.798;12.246;2023-12-20T06:29:43;21.90;;;8.50;;
3801;SDS011;1916;51.798;12.246;2023-12-20T06:31:46;19.90;;;6.93;;
3801;SDS011;1916;51.798;12.246;2023-12-20T06:33:49;13.70;;;5.90;;
3801;SDS011;1916;51.798;12.246;2023-12-20T06:35:59;18.63;;;6.10;;
3801;SDS011;1916;51.798;12.246;2023-12-20T06:38:03;19.50;;;6.73;;
3801;SDS011;1916;51.798;12.246;2023-12-20T06:40:05;23.93;;;6.03;;
3801;SDS011;1916;51.798;12.246;2023-12-20T06:42:16;15.53;;;6.00;;
3801;SDS011;1916;51.798;12.246;2023-12-20T06:44:19;16.53;;;5.23;;
3801;SDS011;1916;51.798;12.246;2023-12-20T06:46:21;21.77;;;5.07;;
3801;SDS011;1916;51.798;12.246;2023-12-20T06:48:23;16.37;;;5.27;;
3801;SDS011;1916;51.798;12.246;2023-12-20T06:50:26;12.30;;;4.13;;
3801;SDS011;1916;51.798;12.246;2023-12-20T06:52:28;8.73;;;4.33;;
3801;SDS011;1916;51.798;12.246;2023-12-20T06:54:30;9.53;;;4.47;;
3801;SDS011;1916;51.798;12.246;2023-12-20T06:56:32;14.87;;;4.40;;
3801;SDS011;1916;51.798;12.246;2023-12-20T06:58:35;9.90;;;4.70;;
3801;SDS011;1916;51.798;12.246;2023-12-20T07:00:38;9.13;;;4.80;;
3801;SDS011;1916;51.798;12.246;2023-12-20T07:02:40;10.60;;;5.40;;
3801;SDS011;1916;51.798;12.246;2023-12-20T07:04:43;9.00;;;4.97;;
3801;SDS011;1916;51.798;12.246;2023-12-20T07:06:45;9.47;;;4.30;;
3801;SDS011;1916;51.798;12.246;2023-12-20T07:08:47;10.43;;;4.67;;
3801;SDS011;1916;51.798;12.246;2023-12-20T07:10:50;10.90;;;4.50;;
3801;SDS011;1916;51.798;12.246;2023-12-20T07:12:52;9.93;;;4.00;;
3801;SDS011;1916;51.798;12.246;2023-12-20T07:14:57;7.77;;;4.33;;
3801;SDS011;1916;51.798;12.246;2023-12-20T07:16:59;12.20;;;4.20;;
3801;SDS011;1916;51.798;12.246;2023-12-20T07:19:01;15.77;;;6.50;;
3801;SDS011;1916;51.798;12.246;2023-12-20T07:21:03;9.47;;;4.70;;
3801;SDS011;1916;51.798;12.246;2023-12-20T07:23:06;5.83;;;3.13;;
3801;SDS011;1916;51.798;12.246;2023-12-20T07:25:08;6.33;;;3.67;;
3801;SDS011;1916;51.798;12.246;2023-12-20T07:27:11;8.30;;;3.50;;
3801;SDS011;1916;51.798;12.246;2023-12-20T07:29:13;10.63;;;3.30;;
3801;SDS011;1916;51.798;12.246;2023-12-20T07:31:15;6.93;;;3.57;;
3801;SDS011;1916;51.798;12.246;2023-12-20T07:33:18;7.67;;;4.13;;
3801;SDS011;1916;51.798;12.246;2023-12-20T07:35:20;8.90;;;3.83;;
3801;SDS011;1916;51.798;12.246;2023-12-20T07:37:23;7.20;;;3.43;;
3801;SDS011;1916;51.798;12.246;2023-12-20T07:39:25;8.37;;;3.07;;
3801;SDS011;1916;51.798;12.246;2023-12-20T07:41:27;12.23;;;3.70;;
3801;SDS011;1916;51.798;12.246;2023-12-20T07:43:30;4.17;;;2.87;;
3801;SDS011;1916;51.798;12.246;2023-12-20T07:45:32;8.53;;;3.43;;
3801;SDS011;1916;51.798;12.246;2023-12-20T07:47:34;3.83;;;2.60;;
3801;SDS011;1916;51.798;12.246;2023-12-20T07:49:37;5.10;;;2.20;;
3801;SDS011;1916;51.798;12.246;2023-12-20T07:51:39;2.60;;;2.30;;
3801;SDS011;1916;51.798;12.246;2023-12-20T07:53:41;6.97;;;3.20;;
3801;SDS011;1916;51.798;12.246;2023-12-20T07:55:43;4.03;;;2.20;;
3801;SDS011;1916;51.798;12.246;2023-12-20T07:57:46;6.20;;;2.43;;
3801;SDS011;1916;51.798;12.246;2023-12-20T07:59:48;9.23;;;2.53;;
3801;SDS011;1916;51.798;12.246;2023-12-20T08:01:51;3.00;;;2.50;;
3801;SDS011;1916;51.798;12.246;2023-12-20T08:03:53;3.40;;;2.73;;
3801;SDS011;1916;51.798;12.246;2023-12-20T08:05:56;5.20;;;2.37;;
3801;SDS011;1916;51.798;12.246;2023-12-20T08:08:01;4.20;;;2.50;;
3801;SDS011;1916;51.798;12.246;2023-12-20T08:10:03;4.93;;;2.30;;
3801;SDS011;1916;51.798;12.246;2023-12-20T08:12:06;4.37;;;2.50;;
3801;SDS011;1916;51.798;12.246;2023-12-20T08:14:09;4.00;;;2.90;;
3801;SDS011;1916;51.798;12.246;2023-12-20T08:16:11;3.20;;;2.83;;
3801;SDS011;1916;51.798;12.246;2023-12-20T08:18:15;5.20;;;2.67;;
3801;SDS011;1916;51.798;12.246;2023-12-20T08:20:18;4.23;;;2.63;;
3801;SDS011;1916;51.798;12.246;2023-12-20T08:22:30;5.97;;;3.20;;
3801;SDS011;1916;51.798;12.246;2023-12-20T08:24:33;4.77;;;2.60;;
3801;SDS011;1916;51.798;12.246;2023-12-20T08:26:35;3.10;;;2.80;;
3801;SDS011;1916;51.798;12.246;2023-12-20T08:28:37;9.13;;;3.00;;
3801;SDS011;1916;51.798;12.246;2023-12-20T08:30:39;4.00;;;2.90;;
3801;SDS011;1916;51.798;12.246;2023-12-20T08:32:42;5.40;;;2.90;;
3801;SDS011;1916;51.798;12.246;2023-12-20T08:34:44;9.03;;;3.20;;
3801;SDS011;1916;51.798;12.246;2023-12-20T08:36:47;7.33;;;3.20;;
3801;SDS011;1916;51.798;12.246;2023-12-20T08:38:49;6.33;;;3.00;;
3801;SDS011;1916;51.798;12.246;2023-12-20T08:40:52;8.33;;;3.87;;
3801;SDS011;1916;51.798;12.246;2023-12-20T08:42:54;9.47;;;2.60;;
3801;SDS011;1916;51.798;12.246;2023-12-20T08:44:57;5.10;;;2.57;;
3801;SDS011;1916;51.798;12.246;2023-12-20T08:47:03;5.90;;;2.80;;
3801;SDS011;1916;51.798;12.246;2023-12-20T08:49:05;10.70;;;3.20;;
3801;SDS011;1916;51.798;12.246;2023-12-20T08:51:08;6.83;;;2.50;;
3801;SDS011;1916;51.798;12.246;2023-12-20T08:53:11;7.63;;;3.10;;
3801;SDS011;1916;51.798;12.246;2023-12-20T08:55:13;5.53;;;2.80;;
3801;SDS011;1916;51.798;12.246;2023-12-20T08:57:19;17.43;;;3.27;;
3801;SDS011;1916;51.798;12.246;2023-12-20T08:59:22;12.30;;;3.30;;
3801;SDS011;1916;51.798;12.246;2023-12-20T09:01:25;5.00;;;2.50;;
3801;SDS011;1916;51.798;12.246;2023-12-20T09:03:27;6.03;;;2.97;;
3801;SDS011;1916;51.798;12.246;2023-12-20T09:05:31;7.33;;;3.40;;
3801;SDS011;1916;51.798;12.246;2023-12-20T09:07:33;4.57;;;2.67;;
3801;SDS011;1916;51.798;12.246;2023-12-20T09:09:36;8.13;;;3.27;;
3801;SDS011;1916;51.798;12.246;2023-12-20T09:11:38;5.40;;;2.70;;
3801;SDS011;1916;51.798;12.246;2023-12-20T09:13:40;7.43;;;2.73;;
3801;SDS011;1916;51.798;12.246;2023-12-20T09:15:43;6.93;;;3.53;;
3801;SDS011;1916;51.798;12.246;2023-12-20T09:17:45;9.17;;;2.70;;
3801;SDS011;1916;51.798;12.246;2023-12-20T09:19:48;7.67;;;3.03;;
3801;SDS011;1916;51.798;12.246;2023-12-20T09:21:51;3.60;;;2.47;;
3801;SDS011;1916;51.798;12.246;2023-12-20T09:23:53;5.07;;;2.77;;
3801;SDS011;1916;51.798;12.246;2023-12-20T09:25:56;6.83;;;2.97;;
3801;SDS011;1916;51.798;12.246;2023-12-20T09:27:59;7.60;;;4.07;;
3801;SDS011;1916;51.798;12.246;2023-12-20T09:30:01;13.80;;;5.40;;
3801;SDS011;1916;51.798;12.246;2023-12-20T09:32:04;5.47;;;3.40;;
3801;SDS011;1916;51.798;12.246;2023-12-20T09:34:06;7.50;;;3.10;;
3801;SDS011;1916;51.798;12.246;2023-12-20T09:36:09;5.07;;;2.70;;
3801;SDS011;1916;51.798;12.246;2023-12-20T09:38:11;6.67;;;2.50;;
3801;SDS011;1916;51.798;12.246;2023-12-20T09:40:17;4.50;;;2.30;;
3801;SDS011;1916;51.798;12.246;2023-12-20T09:42:28;7.13;;;2.20;;
3801;SDS011;1916;51.798;12.246;2023-12-20T09:44:37;4.17;;;2.20;;
3801;SDS011;1916;51.798;12.246;2023-12-20T09:46:44;9.70;;;2.50;;
3801;SDS011;1916;51.798;12.246;2023-12-20T09:48:47;4.03;;;2.50;;
3801;SDS011;1916;51.798;12.246;2023-12-20T09:50:49;8.33;;;2.60;;
3801;SDS011;1916;51.798;12.246;2023-12-20T09:52:54;7.43;;;2.33;;
3801;SDS011;1916;51.798;12.246;2023-12-20T09:55:01;5.20;;;2.83;;
3801;SDS011;1916;51.798;12.246;2023-12-20T09:57:07;7.73;;;4.00;;
3801;SDS011;1916;51.798;12.246;2023-12-20T09:59:11;2.90;;;2.43;;
3801;SDS011;1916;51.798;12.246;2023-12-20T10:01:13;7.63;;;3.00;;
3801;SDS011;1916;51.798;12.246;2023-12-20T10:03:17;10.00;;;3.10;;
3801;SDS011;1916;51.798;12.246;2023-12-20T10:05:21;5.30;;;2.90;;
3801;SDS011;1916;51.798;12.246;2023-12-20T10:07:29;10.77;;;3.10;;
3801;SDS011;1916;51.798;12.246;2023-12-20T10:09:31;5.60;;;2.83;;
3801;SDS011;1916;51.798;12.246;2023-12-20T10:11:35;5.30;;;2.73;;
3801;SDS011;1916;51.798;12.246;2023-12-20T10:13:39;8.40;;;3.20;;
3801;SDS011;1916;51.798;12.246;2023-12-20T10:15:46;9.20;;;2.97;;
3801;SDS011;1916;51.798;12.246;2023-12-20T10:17:48;4.50;;;3.10;;
3801;SDS011;1916;51.798;12.246;2023-12-20T10:19:51;8.73;;;2.80;;
3801;SDS011;1916;51.798;12.246;2023-12-20T10:21:54;4.07;;;2.50;;
3801;SDS011;1916;51.798;12.246;2023-12-20T10:23:57;7.40;;;2.87;;
3801;SDS011;1916;51.798;12.246;2023-12-20T10:26:00;6.70;;;3.00;;
3801;SDS011;1916;51.798;12.246;2023-12-20T10:28:09;7.10;;;3.43;;
3801;SDS011;1916;51.798;12.246;2023-12-20T10:30:14;6.80;;;2.80;;
3801;SDS011;1916;51.798;12.246;2023-12-20T10:32:26;11.60;;;3.40;;
3801;SDS011;1916;51.798;12.246;2023-12-20T10:34:29;6.00;;;3.10;;
3801;SDS011;1916;51.798;12.246;2023-12-20T10:36:35;5.77;;;2.90;;
3801;SDS011;1916;51.798;12.246;2023-12-20T10:38:38;11.27;;;3.30;;
3801;SDS011;1916;51.798;12.246;2023-12-20T10:40:42;7.90;;;2.30;;
3801;SDS011;1916;51.798;12.246;2023-12-20T10:42:45;3.33;;;2.40;;
3801;SDS011;1916;51.798;12.246;2023-12-20T10:44:48;3.60;;;2.40;;
3801;SDS011;1916;51.798;12.246;2023-12-20T10:46:51;4.03;;;2.50;;
3801;SDS011;1916;51.798;12.246;2023-12-20T10:49:02;4.80;;;3.00;;
3801;SDS011;1916;51.798;12.246;2023-12-20T10:51:04;7.53;;;3.80;;
3801;SDS011;1916;51.798;12.246;2023-12-20T10:53:07;4.20;;;2.67;;
3801;SDS011;1916;51.798;12.246;2023-12-20T10:55:10;5.47;;;2.73;;
3801;SDS011;1916;51.798;12.246;2023-12-20T10:57:12;8.73;;;3.00;;
3801;SDS011;1916;51.798;12.246;2023-12-20T10:59:14;9.60;;;3.10;;
3801;SDS011;1916;51.798;12.246;2023-12-20T11:01:24;10.33;;;3.50;;
3801;SDS011;1916;51.798;12.246;2023-12-20T11:03:27;6.40;;;2.97;;
3801;SDS011;1916;51.798;12.246;2023-12-20T11:05:36;7.03;;;3.07;;
3801;SDS011;1916;51.798;12.246;2023-12-20T11:07:50;7.43;;;3.03;;
3801;SDS011;1916;51.798;12.246;2023-12-20T11:10:39;9.07;;;3.00;;
3801;SDS011;1916;51.798;12.246;2023-12-20T11:12:26;7.57;;;3.23;;
3801;SDS011;1916;51.798;12.246;2023-12-20T11:16:42;4.53;;;2.90;;
3801;SDS011;1916;51.798;12.246;2023-12-20T11:18:56;5.40;;;3.40;;
3801;SDS011;1916;51.798;12.246;2023-12-20T11:21:01;6.40;;;3.20;;
3801;SDS011;1916;51.798;12.246;2023-12-20T11:23:06;6.33;;;2.50;;
3801;SDS011;1916;51.798;12.246;2023-12-20T11:25:10;8.40;;;2.83;;
3801;SDS011;1916;51.798;12.246;2023-12-20T11:27:13;6.80;;;3.00;;
3801;SDS011;1916;51.798;12.246;2023-12-20T11:29:32;3.93;;;2.57;;
3801;SDS011;1916;51.798;12.246;2023-12-20T11:31:39;4.00;;;2.60;;
3801;SDS011;1916;51.798;12.246;2023-12-20T11:33:42;7.77;;;3.80;;
3801;SDS011;1916;51.798;12.246;2023-12-20T11:35:46;5.80;;;4.30;;
3801;SDS011;1916;51.798;12.246;2023-12-20T11:37:48;5.07;;;2.83;;
3801;SDS011;1916;51.798;12.246;2023-12-20T11:40:01;3.50;;;2.70;;
3801;SDS011;1916;51.798;12.246;2023-12-20T11:42:06;10.97;;;4.10;;
3801;SDS011;1916;51.798;12.246;2023-12-20T11:44:08;4.50;;;2.70;;
3801;SDS011;1916;51.798;12.246;2023-12-20T11:46:10;9.97;;;3.23;;
3801;SDS011;1916;51.798;12.246;2023-12-20T11:48:14;7.57;;;2.67;;
3801;SDS011;1916;51.798;12.246;2023-12-20T11:50:18;9.57;;;3.17;;
3801;SDS011;1916;51.798;12.246;2023-12-20T11:52:21;9.50;;;3.57;;
3801;SDS011;1916;51.798;12.246;2023-12-20T11:54:23;6.90;;;3.57;;
3801;SDS011;1916;51.798;12.246;2023-12-20T11:56:25;9.63;;;4.03;;
3801;SDS011;1916;51.798;12.246;2023-12-20T11:58:28;4.93;;;2.70;;
3801;SDS011;1916;51.798;12.246;2023-12-20T12:00:30;8.07;;;3.60;;
3801;SDS011;1916;51.798;12.246;2023-12-20T12:02:32;4.80;;;2.90;;
3801;SDS011;1916;51.798;12.246;2023-12-20T12:04:34;8.80;;;3.40;;
3801;SDS011;1916;51.798;12.246;2023-12-20T12:06:37;6.50;;;2.90;;
3801;SDS011;1916;51.798;12.246;2023-12-20T12:08:39;11.00;;;2.90;;
3801;SDS011;1916;51.798;12.246;2023-12-20T12:10:41;8.73;;;3.70;;
3801;SDS011;1916;51.798;12.246;2023-12-20T12:12:44;3.60;;;2.87;;
3801;SDS011;1916;51.798;12.246;2023-12-20T12:14:47;7.10;;;3.30;;
3801;SDS011;1916;51.798;12.246;2023-12-20T12:16:51;5.33;;;3.17;;
3801;SDS011;1916;51.798;12.246;2023-12-20T12:18:56;7.13;;;2.57;;
3801;SDS011;1916;51.798;12.246;2023-12-20T12:21:00;8.83;;;2.80;;
3801;SDS011;1916;51.798;12.246;2023-12-20T12:23:13;6.40;;;2.77;;
3801;SDS011;1916;51.798;12.246;2023-12-20T12:25:16;5.57;;;3.00;;
3801;SDS011;1916;51.798;12.246;2023-12-20T12:27:18;5.43;;;2.53;;
3801;SDS011;1916;51.798;12.246;2023-12-20T12:29:21;3.97;;;2.70;;
3801;SDS011;1916;51.798;12.246;2023-12-20T12:31:23;4.80;;;2.53;;